createdAt,value
2022-09-27T00:04:26.779Z,97896.09
2022-09-27T00:09:33.670Z,97888.31
2022-09-27T00:14:40.782Z,97881.98
2022-09-27T00:19:46.143Z,97882.39
2022-09-27T00:24:53.643Z,97878.05
2022-09-27T00:30:00.551Z,97872.61
2022-09-27T00:35:09.146Z,97861.31
2022-09-27T00:40:19.793Z,97861.26
2022-09-27T00:45:27.682Z,97856.23
2022-09-27T00:50:35.767Z,97854.70
2022-09-27T00:55:46.350Z,97847.19
2022-09-27T01:00:57.348Z,97844.73
2022-09-27T01:06:07.963Z,97833.58
2022-09-27T01:11:27.091Z,97824.42
2022-09-27T01:16:44.755Z,97820.48
2022-09-27T01:22:04.171Z,97817.92
2022-09-27T01:27:37.882Z,97807.73
2022-09-27T01:32:55.188Z,97800.48
2022-09-27T01:38:11.000Z,97796.57
2022-09-27T01:43:24.061Z,97790.77
2022-09-27T01:48:36.625Z,97788.26
2022-09-27T01:53:47.468Z,97782.79
2022-09-27T01:58:59.411Z,97777.05
2022-09-27T02:04:10.878Z,97771.84
2022-09-27T02:09:22.912Z,97763.55
2022-09-27T02:14:35.830Z,97763.70
2022-09-27T02:19:51.225Z,97762.30
2022-09-27T02:25:04.999Z,97757.90
2022-09-27T02:30:14.868Z,97759.08
2022-09-27T02:35:28.096Z,97752.02
2022-09-27T02:40:37.675Z,97738.90
2022-09-27T02:45:59.264Z,97741.41
2022-09-27T02:51:22.689Z,97743.63
2022-09-27T02:56:37.247Z,97740.41
2022-09-27T03:01:53.599Z,97735.95
2022-09-27T03:07:01.718Z,97729.02
2022-09-27T03:12:08.922Z,97723.39
2022-09-27T03:17:15.906Z,97714.82
2022-09-27T03:22:21.370Z,97712.34
2022-09-27T03:27:30.803Z,97724.16
2022-09-27T03:32:43.312Z,97730.51
2022-09-27T03:37:51.277Z,97729.46
2022-09-27T03:42:59.011Z,97731.21
2022-09-27T03:48:06.502Z,97723.59
2022-09-27T03:53:13.390Z,97705.71
2022-09-27T03:58:20.188Z,97701.61
2022-09-27T04:03:27.216Z,97693.36
2022-09-27T04:08:32.547Z,97707.09
2022-09-27T04:13:39.553Z,97694.39
2022-09-27T04:18:47.064Z,97693.27
2022-09-27T04:23:53.956Z,97691.72
2022-09-27T04:29:01.176Z,97685.23
2022-09-27T04:34:08.479Z,97674.11
2022-09-27T04:39:15.747Z,97680.27
2022-09-27T04:44:22.905Z,97682.15
2022-09-27T04:49:29.986Z,97674.79
2022-09-27T04:54:35.345Z,97684.94
2022-09-27T04:59:42.915Z,97689.84
2022-09-27T05:04:49.862Z,97686.40
2022-09-27T05:09:57.431Z,97677.38
2022-09-27T05:15:06.020Z,97664.52
2022-09-27T05:20:14.341Z,97665.39
2022-09-27T05:25:21.750Z,97661.36
2022-09-27T05:30:32.560Z,97651.92
2022-09-27T05:35:45.526Z,97649.23
2022-09-27T05:40:53.979Z,97649.86
2022-09-27T05:46:01.736Z,97653.49
2022-09-27T05:51:09.229Z,97646.83
2022-09-27T05:56:17.541Z,97643.81
2022-09-27T06:01:27.969Z,97642.70
2022-09-27T06:06:37.649Z,97638.67
2022-09-27T06:11:45.605Z,97633.42
2022-09-27T06:16:55.309Z,97631.71
2022-09-27T06:22:05.114Z,97641.50
2022-09-27T06:27:11.956Z,97641.61
2022-09-27T06:32:18.790Z,97649.63
2022-09-27T06:37:29.232Z,97654.45
2022-09-27T06:42:37.046Z,97649.42
2022-09-27T06:47:44.451Z,97645.93
2022-09-27T06:52:53.799Z,97648.00
2022-09-27T06:58:19.644Z,97645.67
2022-09-27T07:03:35.499Z,97649.77
2022-09-27T07:08:43.728Z,97646.75
2022-09-27T07:13:48.925Z,97639.39
2022-09-27T07:18:56.109Z,97637.79
2022-09-27T07:24:04.291Z,97636.98
2022-09-27T07:29:13.882Z,97635.42
2022-09-27T07:34:23.096Z,97636.96
2022-09-27T07:39:30.111Z,97639.21
2022-09-27T07:44:38.045Z,97631.40
2022-09-27T07:49:47.543Z,97623.88
2022-09-27T07:54:54.575Z,97625.46
2022-09-27T08:00:03.021Z,97616.73
2022-09-27T08:05:11.371Z,97620.28
2022-09-27T08:10:18.941Z,97616.88
2022-09-27T08:15:28.830Z,97617.94
2022-09-27T08:20:34.548Z,97618.15
2022-09-27T08:25:42.821Z,97615.03
2022-09-27T08:30:52.058Z,97608.81
2022-09-27T08:35:59.994Z,97605.53
2022-09-27T08:41:15.502Z,97604.17
2022-09-27T08:46:36.212Z,97604.02
2022-09-27T08:51:46.658Z,97601.63
2022-09-27T08:57:00.165Z,97599.40
2022-09-27T09:02:14.058Z,97599.67
2022-09-27T09:07:40.004Z,97590.20
2022-09-27T09:12:58.890Z,97590.02
2022-09-27T09:18:23.759Z,97586.85
2022-09-27T09:23:59.132Z,97572.25
2022-09-27T09:29:21.190Z,97573.77
2022-09-27T09:34:35.780Z,97562.47
2022-09-27T09:39:49.380Z,97552.20
2022-09-27T09:45:01.463Z,97539.77
2022-09-27T09:50:21.624Z,97539.36
2022-09-27T09:55:36.908Z,97523.93
2022-09-27T10:00:47.886Z,97520.71
2022-09-27T10:05:55.856Z,97510.83
2022-09-27T10:11:04.131Z,97501.63
2022-09-27T10:16:15.469Z,97497.65
2022-09-27T10:21:27.397Z,97487.88
2022-09-27T10:26:37.003Z,97477.27
2022-09-27T10:31:48.060Z,97475.88
2022-09-27T10:37:06.945Z,97475.42
2022-09-27T10:42:34.154Z,97466.98
2022-09-27T10:47:42.486Z,97461.79
2022-09-27T10:52:50.505Z,97461.81
2022-09-27T10:57:58.396Z,97452.21
2022-09-27T11:03:14.310Z,97443.36
2022-09-27T11:08:30.680Z,97444.27
2022-09-27T11:13:38.724Z,97439.82
2022-09-27T11:18:58.980Z,97436.61
2022-09-27T11:24:25.024Z,97429.70
2022-09-27T11:29:41.292Z,97423.30
2022-09-27T11:35:07.045Z,97416.76
2022-09-27T11:40:27.648Z,97410.09
2022-09-27T11:46:14.248Z,97408.73
2022-09-27T11:51:27.197Z,97405.65
2022-09-27T11:56:49.676Z,97396.63
2022-09-27T12:02:08.226Z,97395.95
2022-09-27T12:07:23.374Z,97390.19
2022-09-27T12:12:34.054Z,97378.95
2022-09-27T12:17:44.105Z,97370.80
2022-09-27T12:23:00.414Z,97369.94
2022-09-27T12:28:15.593Z,97358.89
2022-09-27T12:33:30.404Z,97354.25
2022-09-27T12:38:45.257Z,97350.47
2022-09-27T12:43:54.179Z,97343.13
2022-09-27T12:49:09.443Z,97344.81
2022-09-27T12:54:53.193Z,97340.96
2022-09-27T13:00:10.469Z,97332.55
2022-09-27T13:05:58.952Z,97322.73
2022-09-27T13:11:18.010Z,97316.41
2022-09-27T13:16:26.932Z,97307.23
2022-09-27T13:22:00.854Z,97304.42
2022-09-27T13:27:40.722Z,97300.59
2022-09-27T13:33:33.263Z,97301.01
2022-09-27T13:38:40.632Z,97309.76
2022-09-27T13:44:05.258Z,97310.86
2022-09-27T13:49:20.360Z,97314.42
2022-09-27T13:54:51.064Z,97299.40
2022-09-27T14:00:04.807Z,97302.11
2022-09-27T14:05:19.582Z,97304.70
2022-09-27T14:10:28.824Z,97300.81
2022-09-27T14:15:37.058Z,97298.32
2022-09-27T14:20:47.655Z,97297.94
2022-09-27T14:25:58.915Z,97298.27
2022-09-27T14:31:16.367Z,97298.88
2022-09-27T14:36:48.968Z,97293.79
2022-09-27T14:41:55.832Z,97292.98
2022-09-27T14:47:21.640Z,97281.52
2022-09-27T14:52:33.447Z,97287.07
2022-09-27T14:57:52.459Z,97289.89
2022-09-27T15:03:03.417Z,97293.91
2022-09-27T15:08:15.624Z,97297.00
2022-09-27T15:13:23.348Z,97289.23
2022-09-27T15:18:42.187Z,97283.06
2022-09-27T15:23:50.215Z,97290.00
2022-09-27T15:28:57.224Z,97320.31
2022-09-27T15:34:06.848Z,97333.20
2022-09-27T15:39:20.582Z,97342.81
2022-09-27T15:44:54.130Z,97354.13
2022-09-27T15:50:23.058Z,97366.44
2022-09-27T15:55:34.260Z,97371.63
2022-09-27T16:00:53.986Z,97370.00
2022-09-27T16:06:02.311Z,97364.20
2022-09-27T16:11:11.535Z,97369.52
2022-09-27T16:16:23.571Z,97369.28
2022-09-27T16:21:32.204Z,97370.59
2022-09-27T16:26:39.307Z,97373.73
2022-09-27T16:31:46.727Z,97385.48
2022-09-27T16:36:53.705Z,97390.95
2022-09-27T16:42:05.105Z,97391.03
2022-09-27T16:47:12.492Z,97399.12
2022-09-27T16:52:19.609Z,97408.45
2022-09-27T16:57:28.656Z,97420.27
2022-09-27T17:02:36.578Z,97420.80
2022-09-27T17:07:43.992Z,97417.90
2022-09-27T17:12:51.373Z,97424.64
2022-09-27T17:17:59.220Z,97429.64
2022-09-27T17:23:07.131Z,97422.02
2022-09-27T17:28:14.354Z,97418.45
2022-09-27T17:33:22.982Z,97416.60
2022-09-27T17:38:30.084Z,97411.38
2022-09-27T17:43:38.009Z,97414.64
2022-09-27T17:49:03.221Z,97423.38
2022-09-27T17:54:12.157Z,97430.80
2022-09-27T17:59:20.093Z,97430.36
2022-09-27T18:04:27.098Z,97437.65
2022-09-27T18:09:35.631Z,97443.70
2022-09-27T18:14:43.297Z,97449.34
2022-09-27T18:19:52.046Z,97462.01
2022-09-27T18:25:01.334Z,97461.52
2022-09-27T18:30:12.514Z,97465.16
2022-09-27T18:35:20.968Z,97468.99
2022-09-27T18:40:54.444Z,97473.96
2022-09-27T18:45:57.426Z,97479.05
2022-09-27T18:51:13.885Z,97481.20
2022-09-27T18:56:20.984Z,97489.40
2022-09-27T19:01:28.788Z,97488.25
2022-09-27T19:06:37.366Z,97487.30
2022-09-27T19:11:46.920Z,97489.11
2022-09-27T19:16:54.698Z,97491.79
2022-09-27T19:22:01.759Z,97495.01
2022-09-27T19:27:09.448Z,97499.02
2022-09-27T19:32:16.967Z,97503.95
2022-09-27T19:37:24.063Z,97506.29
2022-09-27T19:42:31.593Z,97506.35
2022-09-27T19:47:39.251Z,97503.58
2022-09-27T19:52:47.650Z,97500.48
2022-09-27T19:57:56.570Z,97504.12
2022-09-27T20:03:03.617Z,97501.17
2022-09-27T20:08:10.812Z,97500.90
2022-09-27T20:13:18.278Z,97505.05
2022-09-27T20:18:25.889Z,97504.05
2022-09-27T20:23:34.790Z,97497.82
2022-09-27T20:28:45.874Z,97492.47
2022-09-27T20:33:55.140Z,97496.52
2022-09-27T20:39:05.467Z,97498.95
2022-09-27T20:44:15.752Z,97495.95
2022-09-27T20:49:25.572Z,97503.54
2022-09-27T20:54:33.724Z,97504.60
2022-09-27T20:59:42.979Z,97503.75
2022-09-27T21:04:49.880Z,97501.47
2022-09-27T21:09:57.439Z,97500.77
2022-09-27T21:15:05.414Z,97500.47
2022-09-27T21:20:15.023Z,97509.23
2022-09-27T21:25:22.095Z,97514.23
2022-09-27T21:30:30.578Z,97517.23
2022-09-27T21:35:37.655Z,97517.90
2022-09-27T21:40:54.512Z,97510.41
2022-09-27T21:46:09.928Z,97503.86
2022-09-27T21:51:19.170Z,97498.20
2022-09-27T21:56:29.258Z,97494.60
2022-09-27T22:01:36.915Z,97485.19
2022-09-27T22:06:45.294Z,97479.02
2022-09-27T22:11:52.080Z,97481.52
2022-09-27T22:16:57.500Z,97480.08
2022-09-27T22:22:04.666Z,97488.34
2022-09-27T22:27:11.758Z,97488.97
2022-09-27T22:32:18.758Z,97496.37
2022-09-27T22:37:25.578Z,97501.95
2022-09-27T22:42:32.464Z,97498.02
2022-09-27T22:47:37.850Z,97503.38
2022-09-27T22:52:44.791Z,97500.23
2022-09-27T22:57:54.252Z,97498.83
2022-09-27T23:03:01.879Z,97497.92
2022-09-27T23:08:09.146Z,97501.67
2022-09-27T23:13:15.978Z,97495.95
2022-09-27T23:18:21.390Z,97491.17
2022-09-27T23:23:28.960Z,97491.88
2022-09-27T23:28:36.597Z,97483.40
2022-09-27T23:33:46.652Z,97485.39
2022-09-27T23:38:54.164Z,97488.45
2022-09-27T23:44:02.054Z,97496.22
2022-09-27T23:49:13.091Z,97500.70
2022-09-27T23:54:20.198Z,97507.51
2022-09-27T23:59:27.580Z,97507.52
